createdAt,value
2022-08-16T00:02:43.182Z,99517.88
2022-08-16T00:05:49.174Z,99520.13
2022-08-16T00:08:59.964Z,99523.06
2022-08-16T00:12:02.905Z,99530.31
2022-08-16T00:15:17.157Z,99532.44
2022-08-16T00:18:22.359Z,99535.19
2022-08-16T00:21:33.160Z,99532.44
2022-08-16T00:24:35.741Z,99533.97
2022-08-16T00:27:38.041Z,99531.03
2022-08-16T00:30:41.702Z,99529.66
2022-08-16T00:33:49.961Z,99526.75
2022-08-16T00:36:55.968Z,99531.47
2022-08-16T00:39:59.173Z,99531.09
2022-08-16T00:43:02.583Z,99538.19
2022-08-16T00:46:34.005Z,99538.75
2022-08-16T00:49:39.052Z,99534.03
2022-08-16T00:52:45.788Z,99537.63
2022-08-16T00:55:54.990Z,99540.59
2022-08-16T00:58:57.364Z,99543.50
2022-08-16T01:02:30.679Z,99544.59
2022-08-16T01:05:28.640Z,99538.19
2022-08-16T01:08:36.219Z,99542.66
2022-08-16T01:11:54.125Z,99544.34
2022-08-16T01:14:59.381Z,99550.47
2022-08-16T01:18:02.992Z,99553.50
2022-08-16T01:21:13.032Z,99566.75
2022-08-16T01:24:53.277Z,99561.28
2022-08-16T01:27:45.682Z,99554.22
2022-08-16T01:30:51.854Z,99555.44
2022-08-16T01:33:54.790Z,99549.44
2022-08-16T01:37:01.381Z,99559.19
2022-08-16T01:40:07.063Z,99564.09
2022-08-16T01:43:10.718Z,99565.31
2022-08-16T01:46:39.238Z,99557.94
2022-08-16T01:50:41.128Z,99563.22
2022-08-16T01:53:06.547Z,99558.78
2022-08-16T01:56:25.006Z,99562.09
2022-08-16T01:59:28.861Z,99557.47
2022-08-16T02:02:32.247Z,99560.38
2022-08-16T02:05:35.235Z,99566.22
2022-08-16T02:08:38.441Z,99558.13
2022-08-16T02:11:48.246Z,99549.50
2022-08-16T02:14:55.351Z,99554.09
2022-08-16T02:17:59.310Z,99556.97
2022-08-16T02:21:07.495Z,99561.56
2022-08-16T02:24:31.630Z,99555.72
2022-08-16T02:27:33.718Z,99553.94
2022-08-16T02:30:43.459Z,99550.31
2022-08-16T02:33:49.091Z,99536.84
2022-08-16T02:36:53.714Z,99549.75
2022-08-16T02:39:58.419Z,99543.16
2022-08-16T02:43:02.816Z,99542.72
2022-08-16T02:46:08.047Z,99544.50
2022-08-16T02:49:11.000Z,99544.06
2022-08-16T02:52:17.397Z,99546.47
2022-08-16T02:55:40.639Z,99550.19
2022-08-16T02:58:49.310Z,99540.72
2022-08-16T03:01:52.527Z,99551.59
2022-08-16T03:04:59.278Z,99546.97
2022-08-16T03:08:02.011Z,99554.28
2022-08-16T03:11:06.632Z,99548.91
2022-08-16T03:14:21.342Z,99552.06
2022-08-16T03:17:32.305Z,99554.00
2022-08-16T03:20:38.353Z,99561.22
2022-08-16T03:23:42.420Z,99558.25
2022-08-16T03:26:45.902Z,99574.59
2022-08-16T03:29:54.923Z,99575.84
2022-08-16T03:32:58.381Z,99572.59
2022-08-16T03:36:30.176Z,99577.38
2022-08-16T03:39:26.238Z,99582.41
2022-08-16T03:42:30.120Z,99591.16
2022-08-16T03:45:34.123Z,99590.34
2022-08-16T03:48:40.400Z,99593.69
2022-08-16T03:51:47.205Z,99605.59
2022-08-16T03:54:57.361Z,99610.03
2022-08-16T03:58:00.973Z,99606.19
2022-08-16T04:01:05.083Z,99605.41
2022-08-16T04:04:08.251Z,99597.63
2022-08-16T04:07:11.315Z,99615.22
2022-08-16T04:10:36.897Z,99604.81
2022-08-16T04:14:01.129Z,99610.75
2022-08-16T04:17:01.676Z,99612.66
2022-08-16T04:20:23.766Z,99609.06
2022-08-16T04:23:33.065Z,99610.50
2022-08-16T04:26:35.485Z,99608.31
2022-08-16T04:29:43.756Z,99608.06
2022-08-16T04:32:50.058Z,99613.22
2022-08-16T04:35:54.316Z,99611.44
2022-08-16T04:38:59.329Z,99622.88
2022-08-16T04:42:10.917Z,99613.16
2022-08-16T04:45:14.531Z,99620.09
2022-08-16T04:48:22.062Z,99624.44
2022-08-16T04:51:36.228Z,99609.50
2022-08-16T04:54:40.636Z,99613.09
2022-08-16T04:57:46.354Z,99611.00
2022-08-16T05:00:58.793Z,99622.00
2022-08-16T05:04:01.862Z,99611.75
2022-08-16T05:07:05.023Z,99606.41
2022-08-16T05:10:19.481Z,99610.56
2022-08-16T05:13:40.311Z,99613.69
2022-08-16T05:16:45.680Z,99627.56
2022-08-16T05:19:57.553Z,99629.44
2022-08-16T05:23:01.429Z,99620.47
2022-08-16T05:26:04.582Z,99632.94
2022-08-16T05:29:10.788Z,99631.53
2022-08-16T05:32:32.257Z,99632.31
2022-08-16T05:35:38.038Z,99636.84
2022-08-16T05:38:41.564Z,99633.22
2022-08-16T05:41:45.314Z,99635.16
2022-08-16T05:44:49.305Z,99636.13
2022-08-16T05:47:59.778Z,99639.56
2022-08-16T05:51:09.975Z,99646.88
2022-08-16T05:54:25.632Z,99638.53
2022-08-16T05:57:34.477Z,99640.81
2022-08-16T06:00:38.211Z,99641.47
2022-08-16T06:03:41.272Z,99645.72
2022-08-16T06:06:56.204Z,99642.28
2022-08-16T06:10:00.379Z,99634.75
2022-08-16T06:13:04.344Z,99628.34
2022-08-16T06:16:07.292Z,99632.91
2022-08-16T06:19:12.907Z,99637.31
2022-08-16T06:22:19.437Z,99646.25
2022-08-16T06:25:39.659Z,99648.00
2022-08-16T06:28:42.890Z,99646.31
2022-08-16T06:31:49.183Z,99645.09
2022-08-16T06:34:57.267Z,99643.47
2022-08-16T06:38:06.104Z,99647.44
2022-08-16T06:41:29.045Z,99649.78
2022-08-16T06:44:43.373Z,99640.63
2022-08-16T06:47:53.656Z,99642.25
2022-08-16T06:50:58.237Z,99632.50
2022-08-16T06:54:01.614Z,99635.16
2022-08-16T06:57:06.102Z,99633.69
2022-08-16T07:00:24.468Z,99637.16
2022-08-16T07:03:32.442Z,99642.09
2022-08-16T07:06:51.334Z,99639.28
2022-08-16T07:09:55.056Z,99643.13
2022-08-16T07:13:04.409Z,99636.44
2022-08-16T07:16:16.589Z,99635.44
2022-08-16T07:20:01.459Z,99645.31
2022-08-16T07:22:58.617Z,99646.59
2022-08-16T07:26:02.467Z,99651.34
2022-08-16T07:29:04.997Z,99645.19
2022-08-16T07:32:10.074Z,99640.78
2022-08-16T07:35:12.653Z,99645.66
2022-08-16T07:38:19.717Z,99653.00
2022-08-16T07:41:23.749Z,99655.72
2022-08-16T07:44:27.477Z,99650.59
2022-08-16T07:47:51.325Z,99656.66
2022-08-16T07:50:59.243Z,99667.03
2022-08-16T07:54:09.360Z,99663.38
2022-08-16T07:57:16.167Z,99666.22
2022-08-16T08:00:26.329Z,99668.28
2022-08-16T08:03:36.200Z,99665.94
2022-08-16T08:06:41.703Z,99659.56
2022-08-16T08:09:46.222Z,99655.56
2022-08-16T08:12:49.822Z,99653.41
2022-08-16T08:15:53.460Z,99659.25
2022-08-16T08:19:01.236Z,99653.28
2022-08-16T08:22:06.427Z,99652.41
2022-08-16T08:25:09.145Z,99659.03
2022-08-16T08:28:17.001Z,99660.91
2022-08-16T08:31:20.198Z,99670.25
2022-08-16T08:34:23.780Z,99662.97
2022-08-16T08:37:27.038Z,99662.75
2022-08-16T08:40:56.576Z,99667.72
2022-08-16T08:43:59.360Z,99661.53
2022-08-16T08:47:09.282Z,99660.97
2022-08-16T08:50:31.973Z,99658.47
2022-08-16T08:53:36.178Z,99658.37
2022-08-16T08:56:45.525Z,99649.59
2022-08-16T08:59:52.800Z,99648.00
2022-08-16T09:02:56.418Z,99648.56
2022-08-16T09:06:00.524Z,99641.13
2022-08-16T09:09:05.399Z,99649.59
2022-08-16T09:12:08.970Z,99641.34
2022-08-16T09:15:33.626Z,99649.28
2022-08-16T09:18:36.600Z,99642.59
2022-08-16T09:21:40.613Z,99636.44
2022-08-16T09:24:52.701Z,99637.69
2022-08-16T09:28:02.281Z,99635.91
2022-08-16T09:31:14.670Z,99635.41
2022-08-16T09:34:19.579Z,99631.84
2022-08-16T09:37:29.891Z,99628.66
2022-08-16T09:40:42.930Z,99619.44
2022-08-16T09:44:00.211Z,99616.59
2022-08-16T09:47:03.934Z,99618.41
2022-08-16T09:50:14.147Z,99630.78
2022-08-16T09:53:26.676Z,99630.38
2022-08-16T09:56:31.618Z,99631.31
2022-08-16T09:59:38.759Z,99629.28
2022-08-16T10:02:48.227Z,99626.44
2022-08-16T10:05:51.584Z,99618.03
2022-08-16T10:09:04.353Z,99617.75
2022-08-16T10:12:28.190Z,99620.00
2022-08-16T10:15:30.914Z,99622.00
2022-08-16T10:18:56.286Z,99618.81
2022-08-16T10:21:59.289Z,99606.06
2022-08-16T10:25:01.830Z,99596.22
2022-08-16T10:28:28.333Z,99600.56
2022-08-16T10:31:44.397Z,99599.19
2022-08-16T10:34:51.382Z,99598.56
2022-08-16T10:37:55.272Z,99596.16
2022-08-16T10:40:59.345Z,99605.44
2022-08-16T10:44:03.197Z,99605.03
2022-08-16T10:47:05.907Z,99598.38
2022-08-16T10:50:19.598Z,99592.97
2022-08-16T10:53:22.952Z,99598.50
2022-08-16T10:56:44.286Z,99590.28
2022-08-16T10:59:53.220Z,99589.78
2022-08-16T11:03:02.431Z,99586.50
2022-08-16T11:06:12.302Z,99583.28
2022-08-16T11:09:25.579Z,99572.72
2022-08-16T11:12:31.330Z,99579.13
2022-08-16T11:15:35.203Z,99582.78
2022-08-16T11:19:04.618Z,99596.75
2022-08-16T11:22:23.402Z,99600.59
2022-08-16T11:32:13.234Z,99605.25
2022-08-16T11:38:57.679Z,99613.81
2022-08-16T11:42:01.122Z,99623.50
2022-08-16T11:45:04.963Z,99612.59
2022-08-16T11:48:09.479Z,99618.84
2022-08-16T11:51:12.830Z,99609.09
2022-08-16T11:54:20.493Z,99606.22
2022-08-16T11:57:24.184Z,99610.56
2022-08-16T12:00:43.532Z,99618.03
2022-08-16T12:03:52.338Z,99612.44
2022-08-16T12:06:54.979Z,99607.47
2022-08-16T12:09:57.814Z,99613.06
2022-08-16T12:13:02.759Z,99612.03
2022-08-16T12:16:08.175Z,99604.78
2022-08-16T12:19:13.837Z,99604.56
2022-08-16T12:22:18.933Z,99604.06
2022-08-16T12:25:23.559Z,99607.75
2022-08-16T12:28:36.960Z,99598.19
2022-08-16T12:32:00.852Z,99605.63
2022-08-16T12:35:15.704Z,99610.28
2022-08-16T12:38:41.072Z,99608.78
2022-08-16T12:41:45.761Z,99606.41
2022-08-16T12:44:50.189Z,99599.19
2022-08-16T12:48:33.276Z,99608.19
2022-08-16T12:51:58.634Z,99605.59
2022-08-16T12:55:00.566Z,99607.56
2022-08-16T12:58:02.903Z,99606.94
2022-08-16T13:01:22.366Z,99591.25
2022-08-16T13:04:25.968Z,99599.19
2022-08-16T13:07:29.311Z,99594.84
2022-08-16T13:10:47.637Z,99587.94
2022-08-16T13:13:54.764Z,99579.94
2022-08-16T13:16:57.514Z,99577.25
2022-08-16T13:20:10.984Z,99572.63
2022-08-16T13:23:17.023Z,99568.72
2022-08-16T13:26:19.879Z,99558.63
2022-08-16T13:29:22.649Z,99562.22
2022-08-16T13:32:39.916Z,99558.84
2022-08-16T13:35:44.956Z,99560.03
2022-08-16T13:38:49.347Z,99555.53
2022-08-16T13:41:53.935Z,99552.84
2022-08-16T13:44:58.554Z,99553.63
2022-08-16T13:48:02.217Z,99552.78
2022-08-16T13:51:06.851Z,99550.09
2022-08-16T13:54:09.424Z,99547.00
2022-08-16T13:57:12.496Z,99543.59
2022-08-16T14:00:20.940Z,99541.09
2022-08-16T14:03:25.727Z,99538.63
2022-08-16T14:06:28.593Z,99537.16
2022-08-16T14:09:33.723Z,99538.59
2022-08-16T14:12:37.244Z,99544.37
2022-08-16T14:15:41.895Z,99541.94
2022-08-16T14:18:44.408Z,99554.00
2022-08-16T14:21:56.521Z,99547.88
2022-08-16T14:25:11.730Z,99547.44
2022-08-16T14:28:20.178Z,99560.16
2022-08-16T14:31:27.735Z,99560.97
2022-08-16T14:34:30.444Z,99553.22
2022-08-16T14:37:33.356Z,99543.41
2022-08-16T14:40:37.861Z,99558.22
2022-08-16T14:43:40.752Z,99563.75
2022-08-16T14:46:43.351Z,99566.25
2022-08-16T14:49:46.313Z,99562.34
2022-08-16T14:52:56.722Z,99571.41
2022-08-16T14:55:59.788Z,99572.22
2022-08-16T14:59:02.518Z,99570.53
2022-08-16T15:02:10.704Z,99575.94
2022-08-16T15:05:21.299Z,99576.34
2022-08-16T15:08:36.849Z,99568.41
2022-08-16T15:11:45.156Z,99572.69
2022-08-16T15:14:49.626Z,99582.37
2022-08-16T15:17:56.147Z,99592.13
2022-08-16T15:21:02.426Z,99599.22
2022-08-16T15:24:05.537Z,99592.94
2022-08-16T15:27:08.142Z,99592.59
2022-08-16T15:30:47.883Z,99580.84
2022-08-16T15:33:48.637Z,99587.34
2022-08-16T15:36:53.520Z,99582.44
2022-08-16T15:39:59.648Z,99585.62
2022-08-16T15:43:03.892Z,99579.25
2022-08-16T15:46:35.626Z,99581.72
2022-08-16T15:49:54.642Z,99588.75
2022-08-16T15:53:00.976Z,99592.47
2022-08-16T15:56:05.388Z,99603.19
2022-08-16T15:59:08.663Z,99606.66
2022-08-16T16:02:12.460Z,99604.56
2022-08-16T16:05:19.613Z,99601.81
2022-08-16T16:08:26.925Z,99595.22
2022-08-16T16:11:31.107Z,99586.16
2022-08-16T16:14:33.807Z,99581.75
2022-08-16T16:17:36.574Z,99585.44
2022-08-16T16:20:47.587Z,99585.16
2022-08-16T16:23:54.822Z,99590.81
2022-08-16T16:27:00.664Z,99591.22
2022-08-16T16:30:32.520Z,99592.81
2022-08-16T16:33:28.292Z,99606.97
2022-08-16T16:36:33.331Z,99603.28
2022-08-16T16:39:36.547Z,99601.16
2022-08-16T16:42:44.385Z,99601.72
2022-08-16T16:45:46.967Z,99602.06
2022-08-16T16:48:51.509Z,99590.25
2022-08-16T16:51:54.663Z,99600.75
2022-08-16T16:55:10.181Z,99599.91
2022-08-16T16:58:36.412Z,99625.75
2022-08-16T17:01:57.462Z,99648.38
2022-08-16T17:05:06.249Z,99647.78
2022-08-16T17:08:11.380Z,99638.16
2022-08-16T17:11:15.480Z,99631.31
2022-08-16T17:14:32.792Z,99647.25
2022-08-16T17:18:00.015Z,99650.34
2022-08-16T17:20:59.679Z,99657.47
2022-08-16T17:24:02.424Z,99655.94
2022-08-16T17:27:33.248Z,99657.69
2022-08-16T17:30:45.218Z,99656.34
2022-08-16T17:33:54.452Z,99659.31
2022-08-16T17:36:58.885Z,99667.00
2022-08-16T17:40:19.123Z,99670.56
2022-08-16T17:43:34.831Z,99680.69
2022-08-16T17:46:41.748Z,99691.62
2022-08-16T17:49:55.101Z,99694.59
2022-08-16T17:52:57.767Z,99704.66
2022-08-16T17:56:00.592Z,99696.87
2022-08-16T17:59:03.252Z,99710.41
2022-08-16T18:02:42.084Z,99719.63
2022-08-16T18:05:29.653Z,99728.41
2022-08-16T18:08:32.387Z,99716.59
2022-08-16T18:11:40.795Z,99713.94
2022-08-16T18:14:51.180Z,99719.72
2022-08-16T18:17:55.166Z,99718.59
2022-08-16T18:21:17.139Z,99716.09
2022-08-16T18:24:20.091Z,99707.09
2022-08-16T18:27:26.801Z,99707.16
2022-08-16T18:30:31.686Z,99710.84
2022-08-16T18:33:37.622Z,99711.66
2022-08-16T18:36:46.908Z,99720.34
2022-08-16T18:39:49.355Z,99719.66
2022-08-16T18:43:02.985Z,99707.53
2022-08-16T18:46:05.357Z,99711.22
2022-08-16T18:49:08.184Z,99718.91
2022-08-16T18:52:14.010Z,99716.28
2022-08-16T18:55:29.982Z,99716.44
2022-08-16T18:58:36.057Z,99716.75
2022-08-16T19:01:39.271Z,99724.28
2022-08-16T19:04:56.754Z,99718.94
2022-08-16T19:08:02.247Z,99719.25
2022-08-16T19:11:06.698Z,99717.19
2022-08-16T19:14:11.740Z,99723.31
2022-08-16T19:17:14.067Z,99727.25
2022-08-16T19:20:23.091Z,99727.72
2022-08-16T19:23:26.691Z,99726.03
2022-08-16T19:26:29.372Z,99725.31
2022-08-16T19:29:32.400Z,99716.75
2022-08-16T19:32:37.668Z,99724.69
2022-08-16T19:35:40.197Z,99724.19
2022-08-16T19:38:42.821Z,99727.41
2022-08-16T19:41:52.971Z,99735.53
2022-08-16T19:44:58.241Z,99736.81
2022-08-16T19:48:03.634Z,99735.22
2022-08-16T19:51:07.106Z,99739.00
2022-08-16T19:54:09.401Z,99735.09
2022-08-16T19:57:12.450Z,99747.53
2022-08-16T20:00:17.268Z,99743.19
2022-08-16T20:03:21.298Z,99748.00
2022-08-16T20:06:37.831Z,99740.44
2022-08-16T20:09:42.226Z,99742.69
2022-08-16T20:12:59.788Z,99747.41
2022-08-16T20:16:05.374Z,99744.81
2022-08-16T20:19:07.793Z,99745.72
2022-08-16T20:22:35.640Z,99744.97
2022-08-16T20:25:41.273Z,99750.06
2022-08-16T20:28:54.637Z,99752.78
2022-08-16T20:31:57.758Z,99751.00
2022-08-16T20:35:01.426Z,99755.50
2022-08-16T20:38:04.320Z,99759.06
2022-08-16T20:41:06.981Z,99758.94
2022-08-16T20:44:12.314Z,99756.59
2022-08-16T20:47:15.076Z,99760.91
2022-08-16T20:50:18.044Z,99760.38
2022-08-16T20:53:20.654Z,99761.12
2022-08-16T20:56:22.973Z,99764.94
2022-08-16T20:59:25.655Z,99767.19
2022-08-16T21:02:27.996Z,99773.19
2022-08-16T21:05:31.853Z,99775.59
2022-08-16T21:08:51.591Z,99774.47
2022-08-16T21:11:57.032Z,99772.09
2022-08-16T21:15:03.977Z,99774.38
2022-08-16T21:18:06.706Z,99775.62
2022-08-16T21:21:09.237Z,99779.53
2022-08-16T21:24:13.317Z,99786.53
2022-08-16T21:27:17.391Z,99785.97
2022-08-16T21:30:25.085Z,99790.75
2022-08-16T21:33:33.432Z,99799.94
2022-08-16T21:36:36.589Z,99800.78
2022-08-16T21:39:39.408Z,99785.44
2022-08-16T21:42:42.921Z,99793.13
2022-08-16T21:45:45.281Z,99787.09
2022-08-16T21:48:47.951Z,99780.53
2022-08-16T21:51:51.522Z,99788.50
2022-08-16T21:54:56.309Z,99792.09
2022-08-16T21:57:59.213Z,99795.84
2022-08-16T22:01:02.795Z,99798.34
2022-08-16T22:04:36.639Z,99799.88
2022-08-16T22:07:27.778Z,99798.75
2022-08-16T22:11:07.443Z,99806.09
2022-08-16T22:13:58.755Z,99800.38
2022-08-16T22:17:02.213Z,99806.22
2022-08-16T22:20:08.455Z,99806.91
2022-08-16T22:23:16.436Z,99800.34
2022-08-16T22:26:18.821Z,99802.69
2022-08-16T22:29:33.303Z,99804.50
2022-08-16T22:32:39.688Z,99811.88
2022-08-16T22:35:48.483Z,99817.47
2022-08-16T22:38:56.380Z,99812.88
2022-08-16T22:42:05.843Z,99807.28
2022-08-16T22:45:09.148Z,99812.44
2022-08-16T22:48:12.543Z,99810.53
2022-08-16T22:51:16.728Z,99822.50
2022-08-16T22:54:44.319Z,99815.12
2022-08-16T22:57:42.106Z,99814.16
2022-08-16T23:00:45.713Z,99821.06
2022-08-16T23:03:48.243Z,99817.41
2022-08-16T23:06:51.075Z,99808.78
2022-08-16T23:09:54.682Z,99805.69
2022-08-16T23:12:59.494Z,99799.44
2022-08-16T23:16:11.395Z,99795.75
2022-08-16T23:19:16.532Z,99804.69
2022-08-16T23:22:19.044Z,99808.72
2022-08-16T23:25:29.467Z,99802.28
2022-08-16T23:28:31.965Z,99797.94
2022-08-16T23:31:35.032Z,99795.59
2022-08-16T23:34:37.472Z,99798.62
2022-08-16T23:37:40.900Z,99796.38
2022-08-16T23:40:45.691Z,99798.69
2022-08-16T23:43:48.266Z,99803.50
2022-08-16T23:46:50.569Z,99802.94
2022-08-16T23:50:00.685Z,99817.13
2022-08-16T23:53:08.158Z,99815.56
2022-08-16T23:56:15.529Z,99815.94
2022-08-16T23:59:17.784Z,99822.22
